createdAt,value
2018-06-19T00:02:34.549Z,1.20
2018-06-19T00:05:05.240Z,1.50
2018-06-19T00:07:35.427Z,1.43
2018-06-19T00:10:06.391Z,1.70
2018-06-19T00:12:38.970Z,1.77
2018-06-19T00:15:09.019Z,2.07
2018-06-19T00:17:38.454Z,1.23
2018-06-19T00:20:08.244Z,1.30
2018-06-19T00:22:41.514Z,1.53
2018-06-19T00:25:11.862Z,1.60
2018-06-19T00:27:42.251Z,1.20
2018-06-19T00:30:11.515Z,1.13
2018-06-19T00:32:48.396Z,1.47
2018-06-19T00:35:20.061Z,1.47
2018-06-19T00:37:49.654Z,1.30
2018-06-19T00:40:20.240Z,1.30
2018-06-19T00:43:04.031Z,1.20
2018-06-19T00:45:33.595Z,1.50
2018-06-19T00:48:04.548Z,1.50
2018-06-19T00:50:34.420Z,1.40
2018-06-19T00:53:26.730Z,1.70
2018-06-19T00:56:06.835Z,1.60
2018-06-19T00:58:36.451Z,1.53
2018-06-19T01:01:07.503Z,1.40
2018-06-19T01:03:42.107Z,1.37
2018-06-19T01:06:12.021Z,1.47
2018-06-19T01:08:43.181Z,1.13
2018-06-19T01:11:13.490Z,1.40
2018-06-19T01:13:57.377Z,1.43
2018-06-19T01:16:27.666Z,1.60
2018-06-19T01:18:58.513Z,1.50
2018-06-19T01:21:30.319Z,1.40
2018-06-19T01:24:09.649Z,1.20
2018-06-19T01:26:39.259Z,1.30
2018-06-19T01:29:09.143Z,1.60
2018-06-19T01:31:39.792Z,1.53
2018-06-19T01:34:10.680Z,1.50
2018-06-19T01:36:41.099Z,1.70
2018-06-19T01:39:13.334Z,1.40
2018-06-19T01:41:43.257Z,1.50
2018-06-19T01:44:16.522Z,1.53
2018-06-19T01:46:46.570Z,1.50
2018-06-19T01:49:17.520Z,1.60
2018-06-19T01:51:46.794Z,1.50
2018-06-19T01:54:21.877Z,1.40
2018-06-19T01:56:53.894Z,1.17
2018-06-19T01:59:24.842Z,1.43
2018-06-19T02:01:54.923Z,1.70
2018-06-19T02:04:27.289Z,1.63
2018-06-19T02:06:58.277Z,1.40
2018-06-19T02:09:28.631Z,1.70
2018-06-19T02:11:58.495Z,1.60
2018-06-19T02:14:29.459Z,1.40
2018-06-19T02:17:00.298Z,1.30
2018-06-19T02:19:30.182Z,1.50
2018-06-19T02:22:00.294Z,1.70
2018-06-19T02:24:37.470Z,1.40
2018-06-19T02:27:07.418Z,1.50
2018-06-19T02:29:37.175Z,1.27
2018-06-19T02:32:07.321Z,1.40
2018-06-19T02:34:53.218Z,1.80
2018-06-19T02:37:23.121Z,1.63
2018-06-19T02:39:53.750Z,1.60
2018-06-19T02:42:23.812Z,1.50
2018-06-19T02:45:07.283Z,1.50
2018-06-19T02:47:37.346Z,1.50
2018-06-19T02:50:08.366Z,1.60
2018-06-19T02:52:37.888Z,1.50
2018-06-19T02:55:12.575Z,1.37
2018-06-19T02:57:43.644Z,1.37
2018-06-19T03:00:14.757Z,1.40
2018-06-19T03:02:45.645Z,1.50
2018-06-19T03:05:18.293Z,1.70
2018-06-19T03:07:49.619Z,1.80
2018-06-19T03:10:20.250Z,1.50
2018-06-19T03:12:50.598Z,1.67
2018-06-19T03:15:20.834Z,1.30
2018-06-19T03:17:51.911Z,1.50
2018-06-19T03:20:21.184Z,1.63
2018-06-19T03:22:52.461Z,1.33
2018-06-19T03:25:28.631Z,1.40
2018-06-19T03:27:58.347Z,1.50
2018-06-19T03:30:30.119Z,1.30
2018-06-19T03:33:00.327Z,1.50
2018-06-19T03:35:49.563Z,1.43
2018-06-19T03:38:19.607Z,1.63
2018-06-19T03:40:49.517Z,1.80
2018-06-19T03:43:19.091Z,1.57
2018-06-19T03:45:51.509Z,1.50
2018-06-19T03:48:22.431Z,1.80
2018-06-19T03:50:52.272Z,1.67
2018-06-19T03:53:21.995Z,1.40
2018-06-19T03:55:57.250Z,1.33
2018-06-19T03:58:28.898Z,1.60
2018-06-19T04:01:00.171Z,1.40
2018-06-19T04:03:29.962Z,1.73
2018-06-19T04:06:05.776Z,1.40
2018-06-19T04:08:36.150Z,1.57
2018-06-19T04:11:05.445Z,1.50
2018-06-19T04:13:35.714Z,1.33
2018-06-19T04:16:24.437Z,1.50
2018-06-19T04:18:53.684Z,1.40
2018-06-19T04:21:24.095Z,1.60
2018-06-19T04:23:53.367Z,1.67
2018-06-19T04:26:29.650Z,1.40
2018-06-19T04:28:58.925Z,1.70
2018-06-19T04:31:28.206Z,1.50
2018-06-19T04:33:57.352Z,1.43
2018-06-19T04:36:26.510Z,1.67
2018-06-19T04:39:02.238Z,1.47
2018-06-19T04:41:32.413Z,1.60
2018-06-19T04:44:02.350Z,1.63
2018-06-19T04:46:31.688Z,1.57
2018-06-19T04:49:00.943Z,2.10
2018-06-19T04:51:31.359Z,1.60
2018-06-19T04:54:00.843Z,1.60
2018-06-19T04:56:30.810Z,1.60
2018-06-19T05:04:01.274Z,1.47
2018-06-19T05:06:31.367Z,1.60
2018-06-19T05:09:01.762Z,1.50
2018-06-19T05:11:31.766Z,1.53
2018-06-19T05:14:01.019Z,1.50
2018-06-19T05:16:31.030Z,1.30
2018-06-19T05:19:00.292Z,1.30
2018-06-19T05:21:29.578Z,1.57
2018-06-19T05:23:58.867Z,1.40
2018-06-19T05:26:28.146Z,1.30
2018-06-19T05:28:57.882Z,1.20
2018-06-19T05:34:07.286Z,1.50
2018-06-19T05:36:37.734Z,1.40
2018-06-19T05:39:09.758Z,1.40
2018-06-19T05:41:40.259Z,1.60
2018-06-19T05:44:10.522Z,1.70
2018-06-19T05:46:39.804Z,1.40
2018-06-19T05:49:09.786Z,1.50
2018-06-19T05:52:00.429Z,1.63
2018-06-19T05:54:29.674Z,1.47
2018-06-19T05:56:59.555Z,1.70
2018-06-19T05:59:28.825Z,1.70
2018-06-19T06:01:58.111Z,1.30
2018-06-19T06:04:28.298Z,1.40
2018-06-19T06:06:58.606Z,1.60
2018-06-19T06:09:28.910Z,1.87
2018-06-19T06:11:59.281Z,1.60
2018-06-19T06:14:28.566Z,1.30
2018-06-19T06:16:57.840Z,1.37
2018-06-19T06:19:27.219Z,1.50
2018-06-19T06:22:08.518Z,1.50
2018-06-19T06:24:37.405Z,1.53
2018-06-19T06:27:07.131Z,1.73
2018-06-19T06:29:36.939Z,1.70
2018-06-19T06:32:07.666Z,1.63
2018-06-19T06:34:37.644Z,2.00
2018-06-19T06:37:06.936Z,1.70
2018-06-19T06:39:36.199Z,1.50
2018-06-19T06:42:05.478Z,1.40
2018-06-19T06:44:35.122Z,1.70
2018-06-19T06:47:04.455Z,1.73
2018-06-19T06:49:33.997Z,1.53
2018-06-19T06:52:03.883Z,1.60
2018-06-19T06:54:33.551Z,1.33
2018-06-19T06:57:03.315Z,1.40
2018-06-19T06:59:32.926Z,1.50
2018-06-19T07:02:03.830Z,1.57
2018-06-19T07:04:33.574Z,1.73
2018-06-19T07:07:03.518Z,1.70
2018-06-19T07:09:35.487Z,1.50
2018-06-19T07:12:08.014Z,2.03
2018-06-19T07:14:37.367Z,1.93
2018-06-19T07:17:09.516Z,2.00
2018-06-19T07:19:41.188Z,1.90
2018-06-19T07:22:11.506Z,1.73
2018-06-19T07:24:41.889Z,1.60
2018-06-19T07:27:11.184Z,1.57
2018-06-19T07:29:40.455Z,1.60
2018-06-19T07:32:56.816Z,1.90
2018-06-19T07:35:26.061Z,1.70
2018-06-19T07:37:55.372Z,2.33
2018-06-19T07:40:24.940Z,1.80
2018-06-19T07:43:03.959Z,2.27
2018-06-19T07:45:34.268Z,2.23
2018-06-19T07:48:04.154Z,1.80
2018-06-19T07:50:34.339Z,1.67
2018-06-19T07:53:23.471Z,1.73
2018-06-19T07:55:53.075Z,2.33
2018-06-19T07:58:22.350Z,1.70
2018-06-19T08:00:51.610Z,1.57
2018-06-19T08:03:21.320Z,1.60
2018-06-19T08:06:05.466Z,2.10
2018-06-19T08:08:35.463Z,1.50
2018-06-19T08:11:04.718Z,2.10
2018-06-19T08:13:35.318Z,1.70
2018-06-19T08:16:04.518Z,1.90
2018-06-19T08:18:33.795Z,2.10
2018-06-19T08:21:03.052Z,1.77
2018-06-19T08:23:32.818Z,2.20
2018-06-19T08:26:03.447Z,2.00
2018-06-19T08:28:33.409Z,2.13
2018-06-19T08:31:06.690Z,2.00
2018-06-19T08:33:36.453Z,2.10
2018-06-19T08:36:19.152Z,2.37
2018-06-19T08:38:51.807Z,1.80
2018-06-19T08:41:24.877Z,1.73
2018-06-19T08:43:54.611Z,1.53
2018-06-19T08:46:32.382Z,2.30
2018-06-19T08:49:02.330Z,2.20
2018-06-19T08:51:31.574Z,2.00
2018-06-19T08:54:00.974Z,2.40
2018-06-19T08:56:30.510Z,2.17
2018-06-19T08:59:01.500Z,2.00
2018-06-19T09:01:31.189Z,1.80
2018-06-19T09:04:00.510Z,2.23
2018-06-19T09:06:29.769Z,1.87
2018-06-19T09:08:59.369Z,2.20
2018-06-19T09:11:28.874Z,1.93
2018-06-19T09:14:17.211Z,1.80
2018-06-19T09:16:46.844Z,2.10
2018-06-19T09:19:16.737Z,1.77
2018-06-19T09:21:46.044Z,2.10
2018-06-19T09:24:16.398Z,1.80
2018-06-19T09:26:45.626Z,1.80
2018-06-19T09:29:16.763Z,2.00
2018-06-19T09:31:46.372Z,1.90
2018-06-19T09:34:15.923Z,1.60
2018-06-19T09:36:45.573Z,1.70
2018-06-19T09:39:15.081Z,1.87
2018-06-19T09:41:45.366Z,2.10
2018-06-19T09:44:15.067Z,1.50
2018-06-19T09:56:08.338Z,2.10
2018-06-19T09:58:37.743Z,1.70
2018-06-19T10:01:07.071Z,2.00
2018-06-19T10:03:37.673Z,2.30
2018-06-19T10:06:07.332Z,2.03
2018-06-19T10:08:37.750Z,1.83
2018-06-19T10:11:07.070Z,2.13
2018-06-19T10:13:36.705Z,1.83
2018-06-19T10:16:06.019Z,2.30
2018-06-19T10:18:36.394Z,2.27
2018-06-19T10:21:05.903Z,2.07
2018-06-19T10:23:35.894Z,2.40
2018-06-19T10:26:06.180Z,1.93
2018-06-19T10:36:22.253Z,1.83
2018-06-19T10:38:51.855Z,1.80
2018-06-19T10:41:21.140Z,2.10
2018-06-19T10:44:07.309Z,2.00
2018-06-19T10:46:36.729Z,1.60
2018-06-19T10:49:07.007Z,1.80
2018-06-19T10:51:36.719Z,2.10
2018-06-19T10:54:06.105Z,2.20
2018-06-19T10:56:38.591Z,2.00
2018-06-19T10:59:08.006Z,2.10
2018-06-19T11:01:37.891Z,2.17
2018-06-19T11:04:08.569Z,1.90
2018-06-19T11:06:37.954Z,2.10
2018-06-19T11:09:16.844Z,1.90
2018-06-19T11:11:46.123Z,1.83
2018-06-19T11:14:16.208Z,2.03
2018-06-19T11:16:46.675Z,1.80
2018-06-19T11:19:16.697Z,1.77
2018-06-19T11:21:50.764Z,2.10
2018-06-19T11:24:20.625Z,1.60
2018-06-19T11:27:06.518Z,1.70
2018-06-19T11:29:36.202Z,1.50
2018-06-19T11:32:05.682Z,1.80
2018-06-19T11:34:35.483Z,1.93
2018-06-19T11:37:10.894Z,2.20
2018-06-19T11:40:02.917Z,1.87
2018-06-19T11:42:34.720Z,1.63
2018-06-19T11:45:05.034Z,2.90
2018-06-19T11:47:34.322Z,2.10
2018-06-19T11:55:03.406Z,2.63
2018-06-19T11:57:32.691Z,1.90
2018-06-19T12:00:02.183Z,2.30
2018-06-19T12:02:33.109Z,1.90
2018-06-19T12:05:02.378Z,2.07
2018-06-19T12:07:38.028Z,1.70
2018-06-19T12:10:07.476Z,1.80
2018-06-19T12:12:38.337Z,1.90
2018-06-19T12:15:08.278Z,1.80
2018-06-19T12:17:38.220Z,1.70
2018-06-19T12:20:08.560Z,1.80
2018-06-19T12:22:48.190Z,1.80
2018-06-19T12:25:17.683Z,1.53
2018-06-19T12:27:46.976Z,1.70
2018-06-19T12:30:16.598Z,1.90
2018-06-19T12:32:47.348Z,1.53
2018-06-19T12:35:16.648Z,1.60
2018-06-19T12:37:46.957Z,1.60
2018-06-19T12:40:16.239Z,1.70
2018-06-19T12:43:09.410Z,1.80
2018-06-19T12:45:38.658Z,1.87
2018-06-19T12:48:07.946Z,1.60
2018-06-19T12:51:49.519Z,1.57
2018-06-19T12:55:31.734Z,1.53
2018-06-19T12:58:01.039Z,1.63
2018-06-19T13:00:31.074Z,1.57
2018-06-19T13:04:12.902Z,1.70
2018-06-19T13:06:42.787Z,2.00
2018-06-19T13:09:12.058Z,2.03
2018-06-19T13:11:41.307Z,1.60
2018-06-19T13:14:21.697Z,1.73
2018-06-19T13:17:02.511Z,2.10
2018-06-19T13:19:44.065Z,2.00
2018-06-19T13:22:13.367Z,2.10
2018-06-19T13:24:43.519Z,2.17
2018-06-19T13:27:13.642Z,1.90
2018-06-19T13:29:55.046Z,1.60
2018-06-19T13:32:25.310Z,1.80
2018-06-19T13:34:54.980Z,1.90
2018-06-19T13:37:24.280Z,1.90
2018-06-19T13:42:05.692Z,1.93
2018-06-19T13:44:46.642Z,1.70
2018-06-19T13:47:16.919Z,1.93
2018-06-19T13:49:46.591Z,2.20
2018-06-19T13:52:16.189Z,2.00
2018-06-19T13:54:46.389Z,2.00
2018-06-19T13:57:40.286Z,2.30
2018-06-19T14:00:18.876Z,2.53
2018-06-19T14:02:49.460Z,1.90
2018-06-19T14:05:20.518Z,2.47
2018-06-19T14:08:05.410Z,2.33
2018-06-19T14:10:46.902Z,2.37
2018-06-19T14:13:16.186Z,2.17
2018-06-19T14:15:51.650Z,2.70
2018-06-19T14:18:21.919Z,2.50
2018-06-19T14:20:52.208Z,2.50
2018-06-19T14:23:21.841Z,2.20
2018-06-19T14:25:51.762Z,2.20
2018-06-19T14:28:21.494Z,2.20
2018-06-19T14:30:51.093Z,2.17
2018-06-19T14:33:20.597Z,2.13
2018-06-19T14:35:49.857Z,2.23
2018-06-19T14:38:20.493Z,2.20
2018-06-19T14:40:49.796Z,2.00
2018-06-19T14:43:19.397Z,1.90
2018-06-19T14:45:48.667Z,1.57
2018-06-19T14:48:18.769Z,1.73
2018-06-19T14:50:48.979Z,2.07
2018-06-19T14:53:19.690Z,3.10
2018-06-19T14:55:50.254Z,2.00
2018-06-19T14:58:20.920Z,1.87
2018-06-19T15:00:51.429Z,1.70
2018-06-19T15:03:21.316Z,1.83
2018-06-19T15:05:51.802Z,1.47
2018-06-19T15:08:21.727Z,1.90
2018-06-19T15:10:52.574Z,1.97
2018-06-19T15:13:24.083Z,1.87
2018-06-19T15:15:53.682Z,1.80
2018-06-19T15:18:24.070Z,1.87
2018-06-19T15:20:53.566Z,1.53
2018-06-19T15:23:25.191Z,1.60
2018-06-19T15:25:55.606Z,1.30
2018-06-19T15:28:26.767Z,1.57
2018-06-19T15:30:56.047Z,1.67
2018-06-19T15:33:26.738Z,1.50
2018-06-19T15:35:56.967Z,1.23
2018-06-19T15:38:26.461Z,1.73
2018-06-19T15:40:56.433Z,1.77
2018-06-19T15:43:26.686Z,2.00
2018-06-19T15:45:56.359Z,1.60
2018-06-19T15:48:25.667Z,1.60
2018-06-19T15:50:56.316Z,1.70
2018-06-19T15:53:27.147Z,1.80
2018-06-19T15:55:57.267Z,1.60
2018-06-19T15:58:27.480Z,2.00
2018-06-19T16:00:56.742Z,2.20
2018-06-19T16:03:29.041Z,1.37
2018-06-19T16:05:58.995Z,1.60
2018-06-19T16:08:28.927Z,1.50
2018-06-19T16:10:58.422Z,1.67
2018-06-19T16:13:28.547Z,1.57
2018-06-19T16:15:58.738Z,1.33
2018-06-19T16:18:28.482Z,1.17
2018-06-19T16:20:57.727Z,1.60
2018-06-19T16:23:28.785Z,1.40
2018-06-19T16:25:58.586Z,1.50
2018-06-19T16:28:29.571Z,1.80
2018-06-19T16:30:59.646Z,1.20
2018-06-19T16:33:29.911Z,1.30
2018-06-19T16:36:00.103Z,1.40
2018-06-19T16:38:30.837Z,1.23
2018-06-19T16:41:02.565Z,1.70
2018-06-19T16:43:41.502Z,1.40
2018-06-19T16:46:10.754Z,1.40
2018-06-19T16:48:41.515Z,1.60
2018-06-19T16:51:13.852Z,1.37
2018-06-19T16:53:43.812Z,1.63
2018-06-19T16:56:14.079Z,1.70
2018-06-19T16:58:43.797Z,1.50
2018-06-19T17:01:14.454Z,1.60
2018-06-19T17:03:43.925Z,1.50
2018-06-19T17:06:13.171Z,1.50
2018-06-19T17:08:43.341Z,1.70
2018-06-19T17:11:12.569Z,2.13
2018-06-19T17:13:42.993Z,1.97
2018-06-19T17:16:12.570Z,1.77
2018-06-19T17:18:41.865Z,1.70
2018-06-19T17:21:11.630Z,1.90
2018-06-19T17:23:41.211Z,1.77
2018-06-19T17:26:10.749Z,1.90
2018-06-19T17:28:40.335Z,2.10
2018-06-19T17:31:10.161Z,2.07
2018-06-19T17:33:40.118Z,1.90
2018-06-19T17:36:10.872Z,2.10
2018-06-19T17:38:42.189Z,2.20
2018-06-19T17:41:14.052Z,3.20
2018-06-19T17:43:44.486Z,2.97
2018-06-19T17:46:16.636Z,2.57
2018-06-19T17:48:47.930Z,2.40
2018-06-19T17:51:17.968Z,2.33
2018-06-19T17:53:47.950Z,2.40
2018-06-19T17:56:20.875Z,2.40
2018-06-19T17:58:51.755Z,2.47
2018-06-19T18:01:22.802Z,2.80
2018-06-19T18:03:53.046Z,2.80
2018-06-19T18:06:23.256Z,2.80
2018-06-19T18:08:52.534Z,2.63
2018-06-19T18:11:22.126Z,2.60
2018-06-19T18:13:53.008Z,2.80
2018-06-19T18:16:23.118Z,2.50
2018-06-19T18:18:53.918Z,2.83
2018-06-19T18:21:24.011Z,2.97
2018-06-19T18:23:53.486Z,2.90
2018-06-19T18:26:22.919Z,3.23
2018-06-19T18:28:53.377Z,2.77
2018-06-19T18:31:23.318Z,2.57
2018-06-19T18:33:54.174Z,2.60
2018-06-19T18:36:23.478Z,2.90
2018-06-19T18:38:54.628Z,2.80
2018-06-19T18:41:23.864Z,2.70
2018-06-19T18:43:56.584Z,2.53
2018-06-19T18:46:27.031Z,2.60
2018-06-19T18:48:56.893Z,2.53
2018-06-19T18:51:26.721Z,2.60
2018-06-19T18:53:58.581Z,2.60
2018-06-19T18:56:28.798Z,2.30
2018-06-19T18:58:59.032Z,2.33
2018-06-19T19:01:30.301Z,2.90
2018-06-19T19:04:01.518Z,2.83
2018-06-19T19:06:33.327Z,2.83
2018-06-19T19:09:03.911Z,2.53
2018-06-19T19:11:34.399Z,2.80
2018-06-19T19:14:05.449Z,3.30
2018-06-19T19:18:48.712Z,2.73
2018-06-19T19:21:20.430Z,2.60
2018-06-19T19:23:50.124Z,2.50
2018-06-19T19:26:24.984Z,2.87
2018-06-19T19:29:00.799Z,2.57
2018-06-19T19:31:31.750Z,2.70
2018-06-19T19:34:02.406Z,2.63
2018-06-19T19:36:38.246Z,2.37
2018-06-19T19:39:15.252Z,2.80
2018-06-19T19:41:47.906Z,2.60
2018-06-19T19:44:18.445Z,2.60
2018-06-19T19:49:03.122Z,2.60
2018-06-19T19:51:34.151Z,2.60
2018-06-19T19:54:05.880Z,2.70
2018-06-19T19:58:45.535Z,2.57
2018-06-19T20:01:15.209Z,2.50
2018-06-19T20:03:45.779Z,2.40
2018-06-19T20:06:16.489Z,2.57
2018-06-19T20:08:47.634Z,2.53
2018-06-19T20:11:19.039Z,2.40
2018-06-19T20:13:53.584Z,2.30
2018-06-19T20:16:24.342Z,2.30
2018-06-19T20:18:55.135Z,2.80
2018-06-19T20:21:24.795Z,2.40
2018-06-19T20:23:55.610Z,2.20
2018-06-19T20:26:25.838Z,2.33
2018-06-19T20:28:55.741Z,2.07
2018-06-19T20:31:27.281Z,2.33
2018-06-19T20:33:56.858Z,2.20
2018-06-19T20:36:26.156Z,2.20
2018-06-19T20:38:57.343Z,2.30
2018-06-19T20:41:27.222Z,2.00
2018-06-19T20:43:57.386Z,2.23
2018-06-19T20:46:29.217Z,2.33
2018-06-19T20:49:00.319Z,2.40
2018-06-19T20:51:34.024Z,2.40
2018-06-19T20:54:04.890Z,2.27
2018-06-19T20:56:35.377Z,2.13
2018-06-19T20:59:07.026Z,2.47
2018-06-19T21:01:37.091Z,2.10
2018-06-19T21:04:07.751Z,2.23
2018-06-19T21:06:37.722Z,2.40
2018-06-19T21:09:08.415Z,2.40
2018-06-19T21:11:39.107Z,2.23
2018-06-19T21:14:08.690Z,2.17
2018-06-19T21:16:38.035Z,2.23
2018-06-19T21:19:09.911Z,2.00
2018-06-19T21:21:40.270Z,2.10
2018-06-19T21:24:10.417Z,1.90
2018-06-19T21:26:40.330Z,2.33
2018-06-19T21:29:10.334Z,2.10
2018-06-19T21:31:42.078Z,2.20
2018-06-19T21:34:12.196Z,2.30
2018-06-19T21:36:42.700Z,2.00
2018-06-19T21:39:12.254Z,2.10
2018-06-19T21:41:41.904Z,2.03
2018-06-19T21:44:12.902Z,2.00
2018-06-19T21:46:43.024Z,1.90
2018-06-19T21:49:13.978Z,1.90
2018-06-19T21:51:44.287Z,2.47
2018-06-19T21:54:15.158Z,2.10
2018-06-19T21:56:46.315Z,2.27
2018-06-19T21:59:16.724Z,2.10
2018-06-19T22:01:46.257Z,1.90
2018-06-19T22:04:15.755Z,2.20
2018-06-19T22:06:47.881Z,2.27
2018-06-19T22:09:17.635Z,2.00
2018-06-19T22:11:47.580Z,1.97
2018-06-19T22:14:18.350Z,2.00
2018-06-19T22:16:48.851Z,2.00
2018-06-19T22:19:24.355Z,2.07
2018-06-19T22:21:54.315Z,2.30
2018-06-19T22:24:24.401Z,2.40
2018-06-19T22:26:53.979Z,2.10
2018-06-19T22:29:23.954Z,2.20
2018-06-19T22:31:54.521Z,2.07
2018-06-19T22:34:25.163Z,2.00
2018-06-19T22:36:56.128Z,1.80
2018-06-19T22:39:26.526Z,2.17
2018-06-19T22:41:55.895Z,2.30
2018-06-19T22:44:26.047Z,2.10
2018-06-19T22:46:56.182Z,1.87
2018-06-19T22:49:27.227Z,2.00
2018-06-19T22:51:58.074Z,2.10
2018-06-19T22:54:29.508Z,1.87
2018-06-19T22:56:58.762Z,2.07
2018-06-19T22:59:28.510Z,1.70
2018-06-19T23:01:59.193Z,2.00
2018-06-19T23:04:28.478Z,1.93
2018-06-19T23:06:59.050Z,1.97
2018-06-19T23:09:31.170Z,1.60
2018-06-19T23:12:04.054Z,1.53
2018-06-19T23:14:35.332Z,1.90
2018-06-19T23:17:05.483Z,1.87
2018-06-19T23:19:35.553Z,1.50
2018-06-19T23:22:04.811Z,1.90
2018-06-19T23:24:35.702Z,1.77
2018-06-19T23:27:05.875Z,1.60
2018-06-19T23:29:35.634Z,1.80
2018-06-19T23:32:05.918Z,1.80
2018-06-19T23:34:35.306Z,1.60
2018-06-19T23:37:05.851Z,1.83
2018-06-19T23:39:35.239Z,1.80
2018-06-19T23:42:05.090Z,1.70
2018-06-19T23:44:36.031Z,1.87
2018-06-19T23:47:05.411Z,1.60
2018-06-19T23:49:34.732Z,2.13
2018-06-19T23:52:04.878Z,1.70
2018-06-19T23:54:34.278Z,1.60
2018-06-19T23:57:04.282Z,1.60
2018-06-19T23:59:34.983Z,1.90
